Maldives Meteorological Service

METAR

Station
VRMM
METAR VRMM 210700Z 13005KT 9999 FEW018TCU BKN270 31/25 Q1010 NOSIG=
VRMH
METAR VRMH 210700Z 10006KT 9999 SCT017 SCT018CB 30/26 Q1011 CB N,NE,ENE,E=
VRMK
METAR VRMK 190700Z 11005KT 9999 FEW018 BKN270 30/25 Q1010=
VRMT
METAR VRMT 210700Z 11007KT 9999 FEW018 FEW019CB BKN130 30/27 Q1010 CB SW=
VRMG
METAR VRMG 210700Z 14011KT 9000 SCT017 FEW018CB BKN260 31/25 Q1010 CB ENE TEMPO 5000 -SHRA=
Last Updated : 2019-11-21 11:59:16

SPECI

Station
VRMM
VRMH
VRMK
VRMT
VRMG
Last Updated : 2019-11-21 11:59:16